.
WxDataArchive / Data Records for 2006-07-15
2006-07-14 July 2006 2006-07-16

Data Records for Saturday, 15 July 2006

Time	Temp	Chill	HIndex	Humid	Dewpt	 Wind 	HiWind	WindDir	Rain 	Barom 
-----	----	-----	------	-----	-----	------	------	-------	-----	----- 
00:00	73.3	73.3	73.3	93	71.1	0	1	270	0.00	29.882 
00:05	73.3	73.3	73.3	93	71.1	0	0	---	0.00	29.882 
00:10	73.2	73.2	73.2	93	71.0	0	0	---	0.00	29.882 
00:15	73.0	73.0	73.0	93	70.8	0	0	---	0.00	29.881 
00:20	73.0	73.0	73.0	93	70.8	0	0	---	0.00	29.881 
00:25	72.8	72.8	72.8	93	70.7	0	0	---	0.00	29.881 
00:30	73.0	73.0	73.0	93	70.8	0	1	270	0.00	29.883 
00:35	72.8	72.8	72.8	93	70.7	0	0	---	0.00	29.883 
00:40	72.8	72.8	72.8	94	71.0	0	0	---	0.00	29.883 
00:45	72.8	72.8	72.8	94	71.0	0	1	270	0.00	29.883 
00:50	72.8	72.8	72.8	94	71.0	0	0	---	0.00	29.883 
00:55	72.8	72.8	72.8	94	71.0	0	0	---	0.00	29.883 
01:00	72.8	72.8	72.8	94	71.0	0	0	---	0.00	29.881 
01:05	72.8	72.8	72.8	94	71.0	0	1	270	0.00	29.881 
01:10	72.8	72.8	72.8	94	71.0	0	2	270	0.00	29.881 
01:15	72.8	72.8	72.8	93	70.7	0	2	270	0.00	29.882 
01:20	72.7	72.7	72.7	93	70.6	0	1	270	0.00	29.882 
01:25	72.7	72.7	72.7	93	70.6	0	2	270	0.00	29.882 
01:30	72.5	72.5	72.5	93	70.4	0	1	270	0.00	29.882 
01:35	72.5	72.5	72.5	93	70.4	0	1	270	0.00	29.882 
01:40	72.5	72.5	72.5	93	70.4	0	1	270	0.00	29.882 
01:45	72.3	72.3	72.3	93	70.2	0	1	270	0.00	29.883 
01:50	72.3	72.3	72.3	93	70.2	0	1	270	0.00	29.883 
01:55	72.1	72.1	72.1	93	70.0	0	2	338	0.00	29.883 
02:00	72.1	72.1	72.1	93	70.0	0	0	---	0.00	29.884 
02:05	72.1	72.1	72.1	93	70.0	0	1	338	0.00	29.884 
02:10	72.0	72.0	72.0	93	69.9	0	1	338	0.00	29.884 
02:15	72.0	72.0	72.0	93	69.9	0	1	338	0.00	29.891 
02:20	72.0	72.0	72.0	94	70.2	0	1	338	0.00	29.891 
02:25	71.8	71.8	71.8	94	70.0	0	0	---	0.00	29.891 
02:30	71.8	71.8	71.8	94	70.0	0	1	338	0.00	29.891 
02:35	71.8	71.8	71.8	94	70.0	0	0	---	0.00	29.891 
02:40	71.6	71.6	71.6	94	69.8	0	1	338	0.00	29.891 
02:45	71.6	71.6	71.6	94	69.8	0	1	338	0.00	29.897 
02:50	71.6	71.6	71.6	94	69.8	0	0	---	0.00	29.897 
02:55	71.5	71.5	71.5	94	69.7	0	0	---	0.00	29.897 
03:00	71.5	71.5	71.5	94	69.7	0	0	---	0.00	29.897 
03:05	71.3	71.3	71.3	94	69.5	0	0	---	0.00	29.897 
03:10	71.3	71.3	71.3	94	69.5	0	0	---	0.00	29.897 
03:15	71.1	71.1	71.1	94	69.3	0	0	---	0.00	29.907 
03:20	70.9	70.9	70.9	94	69.1	0	0	---	0.00	29.907 
03:25	70.8	70.8	70.8	94	69.0	0	0	---	0.00	29.907 
03:30	70.8	70.8	70.8	94	69.0	0	0	---	0.00	29.910 
03:35	70.6	70.6	70.6	94	68.8	0	0	---	0.00	29.910 
03:40	70.6	70.6	70.6	94	68.8	0	0	---	0.00	29.910 
03:45	70.6	70.6	70.6	94	68.8	0	0	---	0.00	29.912 
03:50	70.4	70.4	70.4	94	68.6	0	0	---	0.00	29.912 
03:55	70.4	70.4	70.4	94	68.6	0	0	---	0.00	29.912 
04:00	70.4	70.4	70.4	94	68.6	0	0	---	0.00	29.913 
04:05	70.3	70.3	70.3	95	68.8	0	0	---	0.00	29.913 
04:10	70.3	70.3	70.3	95	68.8	0	0	---	0.00	29.913 
04:15	70.3	70.3	70.3	95	68.8	0	0	---	0.00	29.917 
04:20	70.3	70.3	70.3	95	68.8	0	0	---	0.00	29.917 
04:25	70.3	70.3	70.3	95	68.8	0	0	---	0.00	29.917 
04:30	70.3	70.3	70.3	95	68.8	0	0	---	0.00	29.921 
04:35	70.1	70.1	70.1	95	68.6	0	0	---	0.00	29.921 
04:40	70.1	70.1	70.1	95	68.6	0	0	---	0.00	29.921 
04:45	70.3	70.3	70.3	95	68.8	0	0	---	0.00	29.920 
04:50	70.3	70.3	70.3	95	68.8	0	0	---	0.00	29.920 
04:55	70.1	70.1	70.1	95	68.6	0	0	---	0.00	29.920 
05:00	70.1	70.1	70.1	95	68.6	0	0	---	0.00	29.921 
05:05	70.1	70.1	70.1	95	68.6	0	0	---	0.00	29.921 
05:10	70.3	70.3	70.3	95	68.8	0	0	---	0.00	29.921 
05:15	70.3	70.3	70.3	95	68.8	0	1	338	0.00	29.926 
05:20	70.4	70.4	70.4	95	68.9	0	1	338	0.00	29.926 
05:25	70.4	70.4	70.4	95	68.9	0	2	338	0.00	29.926 
05:30	70.4	70.4	70.4	96	69.2	0	1	338	0.00	29.932 
05:35	70.6	70.6	70.6	96	69.4	0	1	338	0.00	29.932 
05:40	70.4	70.4	70.4	96	69.2	0	1	338	0.00	29.932 
05:45	70.4	70.4	70.4	96	69.2	0	1	338	0.00	29.936 
05:50	70.4	70.4	70.4	96	69.2	0	1	292	0.00	29.936 
05:55	70.4	70.4	70.4	96	69.2	0	1	292	0.00	29.936 
06:00	70.4	70.4	70.4	96	69.2	0	1	292	0.00	29.938 
06:05	70.4	70.4	70.4	96	69.2	0	1	292	0.00	29.938 
06:10	70.4	70.4	70.4	96	69.2	0	1	292	0.00	29.938 
06:15	70.4	70.4	70.4	96	69.2	0	2	292	0.00	29.942 
06:20	70.4	70.4	70.4	96	69.2	0	1	292	0.00	29.942 
06:25	70.3	70.3	70.3	96	69.1	0	1	292	0.00	29.942 
06:30	70.3	70.3	70.3	96	69.1	0	1	292	0.00	29.952 
06:35	70.3	70.3	70.3	96	69.1	0	0	---	0.00	29.952 
06:40	70.4	70.4	70.4	96	69.2	0	1	292	0.00	29.952 
06:45	70.4	70.4	70.4	96	69.2	0	1	292	0.00	29.956 
06:50	70.4	70.4	70.4	96	69.2	0	1	292	0.00	29.956 
06:55	70.4	70.4	70.4	97	69.5	0	1	292	0.00	29.956 
07:00	70.6	70.6	70.6	97	69.7	0	1	292	0.00	29.966 
07:05	70.6	70.6	70.6	97	69.7	0	1	292	0.00	29.966 
07:10	70.6	70.6	70.6	96	69.4	0	0	---	0.00	29.966 
07:15	70.6	70.6	70.6	96	69.4	0	1	292	0.00	29.970 
07:20	70.6	70.6	70.6	97	69.7	0	1	292	0.00	29.970 
07:25	70.6	70.6	70.6	97	69.7	0	1	292	0.00	29.970 
07:30	70.8	70.8	70.8	97	69.9	0	0	---	0.00	29.977 
07:35	70.9	70.9	70.9	97	70.0	0	1	292	0.00	29.977 
07:40	70.9	70.9	70.9	96	69.7	0	1	292	0.00	29.977 
07:45	71.1	71.1	71.1	97	70.2	0	1	292	0.00	29.978 
07:50	71.3	71.3	71.3	96	70.1	0	1	292	0.00	29.978 
07:55	71.5	71.5	71.5	96	70.3	0	1	292	0.00	29.978 
08:00	71.6	71.6	71.6	96	70.4	0	1	292	0.00	29.981 
08:05	72.0	72.0	72.0	96	70.8	0	1	292	0.00	29.981 
08:10	72.1	72.1	72.1	96	70.9	0	3	315	0.00	29.981 
08:15	72.5	72.5	72.5	96	71.3	1	3	270	0.00	29.985 
08:20	73.0	73.0	73.0	94	71.2	0	2	270	0.00	29.985 
08:25	73.5	73.5	73.5	92	71.0	0	1	270	0.00	29.985 
08:30	74.2	74.2	74.2	89	70.7	0	2	270	0.00	29.985 
08:35	74.9	74.9	74.9	88	71.1	0	2	270	0.00	29.985 
08:40	75.4	75.4	75.7	84	70.2	0	2	292	0.00	29.985 
08:45	76.0	76.0	76.7	83	70.4	0	1	292	0.00	29.989 
08:50	76.5	76.5	77.7	82	70.6	0	1	292	0.00	29.989 
08:55	77.0	77.0	78.5	81	70.7	1	2	292	0.00	29.989 
09:00	77.4	77.4	79.2	81	71.1	0	2	315	0.00	29.995 
09:05	77.9	77.9	80.1	79	70.8	0	2	315	0.00	29.995 
09:10	78.3	78.3	80.8	78	70.9	0	1	315	0.00	29.995 
09:15	78.6	78.6	81.2	77	70.8	0	1	315	0.00	29.997 
09:20	78.8	78.8	81.5	76	70.6	1	2	315	0.00	29.997 
09:25	79.2	79.2	82.2	76	71.0	0	2	315	0.00	29.997 
09:30	79.4	79.4	82.5	75	70.8	1	2	270	0.00	29.999 
09:35	79.6	79.6	82.8	75	71.0	1	2	292	0.00	29.999 
09:40	79.9	79.9	83.3	74	70.8	0	1	292	0.00	29.999 
09:45	80.5	80.5	84.4	74	71.4	0	2	292	0.00	29.997 
09:50	81.1	81.1	85.5	74	72.0	0	2	292	0.00	29.997 
09:55	81.4	81.4	85.5	71	71.1	1	5	292	0.00	29.997 
10:00	81.6	81.6	85.5	69	70.4	0	2	338	0.00	30.000 
10:05	82.0	82.0	86.2	69	70.8	0	2	338	0.00	30.000 
10:10	82.4	82.4	87.0	69	71.2	1	3	315	0.00	30.000 
10:15	82.6	82.6	87.1	68	70.9	1	4	248	0.00	30.003 
10:20	83.0	83.0	87.6	67	70.9	1	3	338	0.00	30.003 
10:25	83.4	83.4	88.4	67	71.3	1	2	0	0.00	30.003 
10:30	83.8	83.8	88.3	64	70.3	1	2	338	0.00	30.002 
10:35	84.3	84.3	89.5	65	71.2	0	2	338	0.00	30.002 
10:40	84.7	84.7	89.6	63	70.7	1	4	270	0.00	30.002 
10:45	84.7	84.7	89.3	62	70.2	1	3	270	0.00	30.003 
10:50	84.7	84.7	89.3	62	70.2	1	3	338	0.00	30.003 
10:55	85.1	85.1	89.8	61	70.1	1	3	270	0.00	30.003 
11:00	85.7	85.7	90.9	61	70.7	0	2	292	0.00	30.006 
11:05	85.9	85.9	90.9	60	70.4	0	2	292	0.00	30.006 
11:10	86.3	86.3	91.7	60	70.7	1	4	248	0.00	30.006 
11:15	86.5	86.5	91.3	58	69.9	1	3	270	0.00	30.001 
11:20	86.7	86.7	90.3	54	68.0	0	2	270	0.00	30.001 
11:25	87.2	87.2	91.1	54	68.5	1	2	270	0.00	30.001 
11:30	87.6	87.6	92.2	55	69.4	0	2	292	0.00	29.995 
11:35	88.0	88.0	91.4	51	67.6	1	2	292	0.00	29.995 
11:40	88.4	88.4	89.3	43	63.0	1	2	338	0.00	29.995 
11:45	88.6	88.6	88.4	39	60.4	1	4	338	0.00	29.998 
11:50	88.8	88.8	89.0	40	61.3	1	3	292	0.00	29.998 
11:55	89.0	89.0	89.0	39	60.8	1	5	315	0.00	29.998 
12:00	89.5	89.5	91.0	43	64.0	1	4	248	0.00	30.001 
12:05	89.5	89.5	90.0	40	61.9	2	5	248	0.00	30.001 
12:10	89.5	89.5	91.7	45	65.3	1	3	292	0.00	30.001 
12:15	89.7	89.7	91.6	44	64.8	1	4	292	0.00	29.995 
12:20	89.7	89.7	91.3	43	64.2	2	4	315	0.00	29.995 
12:25	89.5	89.5	92.4	47	66.6	2	4	315	0.00	29.995 
12:30	89.9	89.9	92.7	46	66.3	1	4	315	0.00	29.995 
12:35	90.1	90.1	93.5	47	67.1	1	2	315	0.00	29.995 
12:40	90.3	90.3	94.7	49	68.5	1	3	338	0.00	29.995 
12:45	90.5	90.5	94.2	47	67.5	2	4	270	0.00	29.996 
12:50	90.3	90.3	93.8	47	67.3	2	4	270	0.00	29.996 
12:55	90.3	90.3	93.0	45	66.0	1	6	315	0.00	29.996 
13:00	90.5	90.5	95.1	49	68.7	1	3	248	0.00	29.989 
13:05	90.5	90.5	93.8	46	66.8	1	4	0	0.00	29.989 
13:10	90.5	90.5	93.8	46	66.8	1	3	338	0.00	29.989 
13:15	90.5	90.5	95.1	49	68.7	1	4	292	0.00	29.991 
13:20	90.7	90.7	93.3	44	65.7	2	5	315	0.00	29.991 
13:25	90.5	90.5	93.8	46	66.8	2	7	315	0.00	29.991 
13:30	90.7	90.7	95.5	49	68.9	1	4	270	0.00	29.991 
13:35	91.0	91.0	94.6	46	67.3	2	4	292	0.00	29.991 
13:40	91.0	91.0	94.6	46	67.3	2	3	315	0.00	29.991 
13:45	91.0	91.0	95.6	48	68.5	2	4	315	0.00	29.993 
13:50	91.2	91.2	96.9	50	69.9	1	2	315	0.00	29.993 
13:55	91.4	91.4	95.8	47	68.3	2	4	270	0.00	29.993 
14:00	91.6	91.6	96.2	47	68.5	1	3	270	0.00	29.989 
14:05	91.6	91.6	95.3	45	67.2	2	4	315	0.00	29.989 
14:10	91.8	91.8	96.6	47	68.7	3	6	315	0.00	29.989 
14:15	91.6	91.6	95.3	45	67.2	3	6	270	0.00	29.990 
14:20	91.4	91.4	94.5	44	66.4	2	5	292	0.00	29.990 
14:25	91.4	91.4	95.8	47	68.3	2	5	270	0.00	29.990 
14:30	92.1	92.1	96.7	46	68.3	2	5	292	0.00	29.989 
14:35	92.1	92.1	94.8	42	65.7	2	9	270	0.00	29.989 
14:40	92.3	92.3	94.7	41	65.1	2	4	270	0.00	29.989 
14:45	92.3	92.3	95.6	43	66.5	2	5	292	0.00	29.990 
14:50	92.3	92.3	95.6	43	66.5	2	4	270	0.00	29.990 
14:55	92.5	92.5	94.6	40	64.6	2	4	315	0.00	29.990 
15:00	92.5	92.5	95.5	42	66.0	2	4	292	0.00	29.989 
15:05	92.5	92.5	96.4	44	67.4	1	3	292	0.00	29.989 
15:10	92.5	92.5	95.9	43	66.7	2	5	292	0.00	29.989 
15:15	91.8	91.8	94.3	42	65.4	2	5	292	0.00	29.990 
15:20	91.4	91.4	93.6	42	65.0	2	4	292	0.00	29.990 
15:25	91.2	91.2	93.7	43	65.5	1	3	338	0.00	29.990 
15:30	90.7	90.7	93.7	45	66.4	0	2	292	0.00	29.990 
15:35	91.0	91.0	93.8	44	66.0	1	4	292	0.00	29.990 
15:40	91.8	91.8	94.7	43	66.1	1	4	292	0.00	29.990 
15:45	92.3	92.3	95.6	43	66.5	1	5	315	0.00	29.986 
15:50	92.9	92.9	95.3	40	65.0	1	3	315	0.00	29.986 
15:55	92.3	92.3	94.7	41	65.1	1	3	292	0.00	29.986 
16:00	92.3	92.3	96.5	45	67.8	1	4	270	0.00	29.988 
16:05	92.9	92.9	95.7	41	65.7	1	4	292	0.00	29.988 
16:10	92.9	92.9	95.7	41	65.7	2	5	338	0.00	29.988 
16:15	92.9	92.9	95.3	40	65.0	2	6	292	0.00	29.990 
16:20	92.9	92.9	94.4	38	63.5	1	4	315	0.00	29.990 
16:25	92.9	92.9	95.3	40	65.0	2	4	292	0.00	29.990 
16:30	92.9	92.9	95.3	40	65.0	1	3	338	0.00	29.989 
16:35	92.7	92.7	95.4	41	65.5	1	3	292	0.00	29.989 
16:40	92.7	92.7	94.9	40	64.8	1	3	292	0.00	29.989 
16:45	92.5	92.5	92.6	35	60.8	2	6	292	0.00	29.990 
16:50	92.7	92.7	94.5	39	64.1	1	3	292	0.00	29.990 
16:55	92.7	92.7	94.1	38	63.3	2	5	270	0.00	29.990 
17:00	92.7	92.7	94.9	40	64.8	1	3	292	0.00	29.988 
17:05	92.5	92.5	95.0	41	65.3	1	3	315	0.00	29.988 
17:10	92.1	92.1	94.8	42	65.7	1	3	270	0.00	29.988 
17:15	92.1	92.1	93.1	38	62.8	1	6	292	0.00	29.985 
17:20	92.1	92.1	93.5	39	63.5	1	3	315	0.00	29.985 
17:25	91.8	91.8	93.4	40	64.0	1	3	315	0.00	29.985 
17:30	91.6	91.6	92.4	38	62.3	2	4	315	0.00	29.989 
17:35	91.8	91.8	93.1	39	63.3	1	4	338	0.00	29.989 
17:40	91.8	91.8	92.3	37	61.8	2	4	315	0.00	29.989 
17:45	91.8	91.8	91.9	36	61.0	1	3	292	0.00	29.988 
17:50	91.6	91.6	91.7	36	60.8	1	3	315	0.00	29.988 
17:55	91.4	91.4	91.7	37	61.4	2	3	292	0.00	29.988 
18:00	91.2	91.2	91.8	38	62.0	1	3	315	0.00	29.989 
18:05	91.2	91.2	92.9	41	64.2	1	4	315	0.00	29.989 
18:10	91.0	91.0	92.2	40	63.3	1	3	292	0.00	29.989 
18:15	90.7	90.7	92.1	41	63.7	2	4	292	0.00	29.980 
18:20	90.7	90.7	92.9	43	65.1	1	2	292	0.00	29.980 
18:25	90.5	90.5	91.8	41	63.5	1	5	292	0.00	29.980 
18:30	90.3	90.3	91.8	42	64.0	1	4	270	0.00	29.984 
18:35	90.1	90.1	91.5	42	63.9	1	4	292	0.00	29.984 
18:40	90.1	90.1	91.9	43	64.5	0	1	292	0.00	29.984 
18:45	89.9	89.9	91.2	42	63.7	1	2	338	0.00	29.985 
18:50	89.9	89.9	91.2	42	63.7	0	2	338	0.00	29.985 
18:55	89.7	89.7	90.9	42	63.5	1	2	338	0.00	29.985 
19:00	89.5	89.5	90.3	41	62.6	0	2	270	0.00	29.989 
19:05	89.5	89.5	90.6	42	63.3	0	2	270	0.00	29.989 
19:10	89.5	89.5	90.3	41	62.6	0	2	292	0.00	29.989 
19:15	89.5	89.5	90.0	40	61.9	1	2	292	0.00	29.989 
19:20	89.3	89.3	90.6	43	63.8	0	2	292	0.00	29.989 
19:25	88.8	88.8	89.6	42	62.7	0	1	292	0.00	29.989 
19:30	88.8	88.8	89.9	43	63.4	0	2	292	0.00	29.991 
19:35	88.8	88.8	89.6	42	62.7	0	2	292	0.00	29.991 
19:40	88.6	88.6	89.3	42	62.5	0	2	292	0.00	29.991 
19:45	88.6	88.6	89.6	43	63.2	0	2	292	0.00	29.991 
19:50	88.4	88.4	89.6	44	63.7	0	1	292	0.00	29.991 
19:55	88.2	88.2	89.3	44	63.5	0	1	292	0.00	29.991 
20:00	88.0	88.0	88.7	43	62.7	0	1	292	0.00	29.992 
20:05	87.8	87.8	89.4	46	64.4	0	1	315	0.00	29.992 
20:10	87.4	87.4	88.5	45	63.4	0	1	315	0.00	29.992 
20:15	87.0	87.0	87.9	45	63.1	0	1	315	0.00	29.991 
20:20	87.0	87.0	87.9	45	63.1	0	1	315	0.00	29.991 
20:25	86.7	86.7	87.8	46	63.4	0	1	315	0.00	29.991 
20:30	86.5	86.5	87.5	46	63.2	0	1	315	0.00	29.990 
20:35	86.1	86.1	87.2	47	63.5	0	1	315	0.00	29.990 
20:40	85.9	85.9	87.2	48	63.9	0	0	---	0.00	29.990 
20:45	85.5	85.5	86.6	48	63.5	0	0	---	0.00	29.992 
20:50	85.1	85.1	86.4	49	63.8	0	0	---	0.00	29.992 
20:55	84.7	84.7	86.0	50	64.0	0	0	---	0.00	29.992 
21:00	84.1	84.1	85.5	51	64.0	0	0	---	0.00	29.994 
21:05	83.8	83.8	85.3	52	64.3	0	0	---	0.00	29.994 
21:10	83.2	83.2	84.7	53	64.3	0	0	---	0.00	29.994 
21:15	82.6	82.6	84.1	54	64.2	0	0	---	0.00	29.991 
21:20	82.2	82.2	84.0	56	64.9	0	0	---	0.00	29.991 
21:25	81.6	81.6	83.2	56	64.4	0	0	---	0.00	29.991 
21:30	81.2	81.2	82.9	57	64.5	0	0	---	0.00	29.994 
21:35	80.9	80.9	82.7	58	64.7	0	0	---	0.00	29.994 
21:40	80.3	80.3	81.9	58	64.2	0	0	---	0.00	29.994 
21:45	79.9	79.9	81.6	59	64.3	0	0	---	0.00	29.998 
21:50	79.6	79.6	81.4	61	64.9	0	0	---	0.00	29.998 
21:55	79.0	79.0	80.8	62	64.8	0	0	---	0.00	29.998 
22:00	78.6	78.6	80.4	63	64.9	0	0	---	0.00	30.004 
22:05	78.3	78.3	80.2	65	65.5	0	0	---	0.00	30.004 
22:10	77.9	77.9	79.8	66	65.6	0	0	---	0.00	30.004 
22:15	77.6	77.6	79.5	67	65.8	0	0	---	0.00	30.004 
22:20	77.2	77.2	79.0	68	65.8	0	0	---	0.00	30.004 
22:25	76.8	76.8	78.6	69	65.8	0	0	---	0.00	30.004 
22:30	76.7	76.7	78.4	69	65.7	0	0	---	0.00	30.010 
22:35	76.3	76.3	78.0	69	65.4	0	0	---	0.00	30.010 
22:40	76.0	76.0	77.6	71	65.9	0	0	---	0.00	30.010 
22:45	75.8	75.8	77.4	71	65.7	0	0	---	0.00	30.018 
22:50	75.6	75.6	77.1	72	65.9	0	0	---	0.00	30.018 
22:55	75.3	75.3	76.8	72	65.6	0	0	---	0.00	30.018 
23:00	75.1	75.1	76.5	73	65.8	0	0	---	0.00	30.021 
23:05	74.7	74.7	74.7	74	65.8	0	0	---	0.00	30.021 
23:10	74.6	74.6	74.6	74	65.7	0	0	---	0.00	30.021 
23:15	74.2	74.2	74.2	75	65.8	0	0	---	0.00	30.019 
23:20	74.0	74.0	74.0	75	65.6	0	0	---	0.00	30.019 
23:25	73.9	73.9	73.9	76	65.8	0	0	---	0.00	30.019 
23:30	73.9	73.9	73.9	77	66.2	0	0	---	0.00	30.020 
23:35	73.5	73.5	73.5	77	65.8	0	0	---	0.00	30.020 
23:40	73.3	73.3	73.3	77	65.6	0	0	---	0.00	30.020 
23:45	73.2	73.2	73.2	78	65.9	0	0	---	0.00	30.021 
23:50	73.0	73.0	73.0	78	65.7	0	0	---	0.00	30.021 
23:55	73.0	73.0	73.0	78	65.7	0	0	---	0.00	30.021 

CoCoRaHS
IN-AL-39
A2 Web Hosting
Creative Commons License
GoDaddy
Look for:

loaded 2017-10-19 14:34:49 • last modified 2010-11-18 10:43:29
Privacy PolicyDisclaimer
• wx.awcolley.com is powered by PmWiki v.2002016 •
• all content (unless otherwise noted) © 2017 A W Colley